sensor_id;sensor_type;location;lat;lon;timestamp;pressure;altitude;pressure_sealevel;temperature;humidity
29169;BME280;16219;42.864;23.360;2023-05-18T00:00:34;95301.06;;;13.52;100.00
29169;BME280;16219;42.864;23.360;2023-05-18T00:03:01;95302.63;;;13.53;100.00
29169;BME280;16219;42.864;23.360;2023-05-18T00:05:29;95304.81;;;13.50;100.00
29169;BME280;16219;42.864;23.360;2023-05-18T00:07:58;95297.31;;;13.53;100.00
29169;BME280;16219;42.864;23.360;2023-05-18T00:10:26;95304.50;;;13.52;100.00
29169;BME280;16219;42.864;23.360;2023-05-18T00:12:53;95299.88;;;13.49;100.00
29169;BME280;16219;42.864;23.360;2023-05-18T00:15:22;95304.91;;;13.54;100.00
29169;BME280;16219;42.864;23.360;2023-05-18T00:17:49;95311.84;;;13.59;100.00
29169;BME280;16219;42.864;23.360;2023-05-18T00:20:19;95306.63;;;13.62;100.00
29169;BME280;16219;42.864;23.360;2023-05-18T00:22:51;95308.09;;;13.60;100.00
29169;BME280;16219;42.864;23.360;2023-05-18T00:25:19;95310.13;;;13.50;100.00
29169;BME280;16219;42.864;23.360;2023-05-18T00:27:46;95311.59;;;13.48;100.00
29169;BME280;16219;42.864;23.360;2023-05-18T00:30:18;95308.41;;;13.42;100.00
29169;BME280;16219;42.864;23.360;2023-05-18T00:32:48;95313.72;;;13.42;100.00
29169;BME280;16219;42.864;23.360;2023-05-18T00:35:16;95311.50;;;13.44;100.00
29169;BME280;16219;42.864;23.360;2023-05-18T00:37:43;95313.38;;;13.44;100.00
29169;BME280;16219;42.864;23.360;2023-05-18T00:40:11;95312.94;;;13.42;100.00
29169;BME280;16219;42.864;23.360;2023-05-18T00:42:39;95326.63;;;13.44;100.00
29169;BME280;16219;42.864;23.360;2023-05-18T00:45:08;95316.78;;;13.44;100.00
29169;BME280;16219;42.864;23.360;2023-05-18T00:47:35;95316.78;;;13.44;100.00
29169;BME280;16219;42.864;23.360;2023-05-18T00:50:05;95321.41;;;13.47;100.00
29169;BME280;16219;42.864;23.360;2023-05-18T00:52:33;95319.09;;;13.46;100.00
29169;BME280;16219;42.864;23.360;2023-05-18T00:55:01;95319.44;;;13.44;100.00
29169;BME280;16219;42.864;23.360;2023-05-18T00:57:29;95314.50;;;13.43;100.00
29169;BME280;16219;42.864;23.360;2023-05-18T00:59:56;95314.66;;;13.34;100.00
29169;BME280;16219;42.864;23.360;2023-05-18T01:02:23;95310.88;;;13.35;100.00
29169;BME280;16219;42.864;23.360;2023-05-18T01:04:54;95304.47;;;13.36;100.00
29169;BME280;16219;42.864;23.360;2023-05-18T01:07:22;95311.50;;;13.44;100.00
29169;BME280;16219;42.864;23.360;2023-05-18T01:09:51;95305.53;;;13.47;100.00
29169;BME280;16219;42.864;23.360;2023-05-18T01:12:23;95303.28;;;13.49;100.00
29169;BME280;16219;42.864;23.360;2023-05-18T01:14:56;95308.59;;;13.49;100.00
29169;BME280;16219;42.864;23.360;2023-05-18T01:17:33;95309.78;;;13.52;100.00
29169;BME280;16219;42.864;23.360;2023-05-18T01:20:22;95305.53;;;13.47;100.00
29169;BME280;16219;42.864;23.360;2023-05-18T01:23:05;95304.75;;;13.47;100.00
29169;BME280;16219;42.864;23.360;2023-05-18T01:25:45;95301.84;;;13.52;100.00
29169;BME280;16219;42.864;23.360;2023-05-18T01:28:18;95307.06;;;13.48;100.00
29169;BME280;16219;42.864;23.360;2023-05-18T01:30:46;95313.88;;;13.49;100.00
29169;BME280;16219;42.864;23.360;2023-05-18T01:33:14;95311.13;;;13.46;100.00
29169;BME280;16219;42.864;23.360;2023-05-18T01:35:41;95310.28;;;13.42;100.00
29169;BME280;16219;42.864;23.360;2023-05-18T01:38:13;95304.66;;;13.43;100.00
29169;BME280;16219;42.864;23.360;2023-05-18T01:40:47;95312.34;;;13.48;100.00
29169;BME280;16219;42.864;23.360;2023-05-18T01:43:20;95313.03;;;13.45;100.00
29169;BME280;16219;42.864;23.360;2023-05-18T01:45:52;95314.56;;;13.46;100.00
29169;BME280;16219;42.864;23.360;2023-05-18T01:48:24;95318.41;;;13.49;100.00
29169;BME280;16219;42.864;23.360;2023-05-18T01:50:54;95315.84;;;13.53;100.00
29169;BME280;16219;42.864;23.360;2023-05-18T01:53:29;95321.84;;;13.49;100.00
29169;BME280;16219;42.864;23.360;2023-05-18T01:56:01;95315.66;;;13.45;100.00
29169;BME280;16219;42.864;23.360;2023-05-18T01:58:36;95316.13;;;13.47;100.00
29169;BME280;16219;42.864;23.360;2023-05-18T02:01:04;95315.25;;;13.43;100.00
29169;BME280;16219;42.864;23.360;2023-05-18T02:03:31;95317.47;;;13.41;100.00
29169;BME280;16219;42.864;23.360;2023-05-18T02:05:59;95317.19;;;13.46;100.00
29169;BME280;16219;42.864;23.360;2023-05-18T02:08:26;95311.41;;;13.41;100.00
29169;BME280;16219;42.864;23.360;2023-05-18T02:10:53;95321.22;;;13.40;100.00
29169;BME280;16219;42.864;23.360;2023-05-18T02:13:20;95313.72;;;13.42;100.00
29169;BME280;16219;42.864;23.360;2023-05-18T02:15:49;95311.06;;;13.42;100.00
29169;BME280;16219;42.864;23.360;2023-05-18T02:18:16;95317.72;;;13.36;100.00
29169;BME280;16219;42.864;23.360;2023-05-18T02:20:43;95317.03;;;13.39;100.00
29169;BME280;16219;42.864;23.360;2023-05-18T02:23:13;95319.94;;;13.34;100.00
29169;BME280;16219;42.864;23.360;2023-05-18T02:25:40;95318.72;;;13.32;100.00
29169;BME280;16219;42.864;23.360;2023-05-18T02:28:09;95322.28;;;13.23;100.00
29169;BME280;16219;42.864;23.360;2023-05-18T02:30:37;95318.41;;;13.21;100.00
29169;BME280;16219;42.864;23.360;2023-05-18T02:33:05;95309.63;;;13.17;100.00
29169;BME280;16219;42.864;23.360;2023-05-18T02:35:33;95327.69;;;13.27;100.00
29169;BME280;16219;42.864;23.360;2023-05-18T02:38:00;95327.81;;;13.18;100.00
29169;BME280;16219;42.864;23.360;2023-05-18T02:40:28;95325.06;;;13.15;100.00
29169;BME280;16219;42.864;23.360;2023-05-18T02:42:56;95319.66;;;13.23;100.00
29169;BME280;16219;42.864;23.360;2023-05-18T02:45:24;95327.69;;;13.27;100.00
29169;BME280;16219;42.864;23.360;2023-05-18T02:47:51;95329.91;;;13.25;100.00
29169;BME280;16219;42.864;23.360;2023-05-18T02:50:20;95333.00;;;13.27;100.00
29169;BME280;16219;42.864;23.360;2023-05-18T02:52:47;95344.00;;;13.29;100.00
29169;BME280;16219;42.864;23.360;2023-05-18T02:55:16;95339.06;;;13.28;100.00
29169;BME280;16219;42.864;23.360;2023-05-18T02:58:12;95343.25;;;13.29;100.00
29169;BME280;16219;42.864;23.360;2023-05-18T03:00:54;95351.28;;;13.32;100.00
29169;BME280;16219;42.864;23.360;2023-05-18T03:03:22;95359.91;;;13.29;100.00
29169;BME280;16219;42.864;23.360;2023-05-18T03:05:52;95365.53;;;13.28;100.00
29169;BME280;16219;42.864;23.360;2023-05-18T03:08:19;95367.19;;;13.32;100.00
29169;BME280;16219;42.864;23.360;2023-05-18T03:10:48;95367.38;;;13.39;100.00
29169;BME280;16219;42.864;23.360;2023-05-18T03:13:16;95365.84;;;13.38;100.00
29169;BME280;16219;42.864;23.360;2023-05-18T03:15:43;95370.50;;;13.29;100.00
29169;BME280;16219;42.864;23.360;2023-05-18T03:18:12;95371.38;;;13.33;100.00
29169;BME280;16219;42.864;23.360;2023-05-18T03:20:40;95370.50;;;13.29;100.00
29169;BME280;16219;42.864;23.360;2023-05-18T03:23:09;95364.78;;;13.27;100.00
29169;BME280;16219;42.864;23.360;2023-05-18T03:25:37;95382.44;;;13.23;100.00
29169;BME280;16219;42.864;23.360;2023-05-18T03:28:05;95379.56;;;13.16;100.00
29169;BME280;16219;42.864;23.360;2023-05-18T03:30:33;95389.28;;;13.24;100.00
29169;BME280;16219;42.864;23.360;2023-05-18T03:33:02;95390.34;;;13.35;100.00
29169;BME280;16219;42.864;23.360;2023-05-18T03:35:34;95393.53;;;13.41;100.00
29169;BME280;16219;42.864;23.360;2023-05-18T03:38:02;95395.63;;;13.47;100.00
29169;BME280;16219;42.864;23.360;2023-05-18T03:40:31;95394.75;;;13.43;100.00
29169;BME280;16219;42.864;23.360;2023-05-18T03:42:59;95391.38;;;13.31;100.00
29169;BME280;16219;42.864;23.360;2023-05-18T03:45:27;95393.00;;;13.35;100.00
29169;BME280;16219;42.864;23.360;2023-05-18T03:47:54;95398.72;;;13.37;100.00
29169;BME280;16219;42.864;23.360;2023-05-18T03:50:23;95402.94;;;13.38;100.00
29169;BME280;16219;42.864;23.360;2023-05-18T03:52:51;95393.53;;;13.41;100.00
29169;BME280;16219;42.864;23.360;2023-05-18T03:55:18;95395.88;;;13.42;100.00
29169;BME280;16219;42.864;23.360;2023-05-18T03:57:48;95396.94;;;13.41;100.00
29169;BME280;16219;42.864;23.360;2023-05-18T04:00:17;95400.91;;;13.47;100.00
29169;BME280;16219;42.864;23.360;2023-05-18T04:02:45;95404.44;;;13.52;100.00
29169;BME280;16219;42.864;23.360;2023-05-18T04:05:19;95398.59;;;13.46;100.00
29169;BME280;16219;42.864;23.360;2023-05-18T04:07:47;95410.41;;;13.48;100.00
29169;BME280;16219;42.864;23.360;2023-05-18T04:10:15;95412.81;;;13.54;100.00
29169;BME280;16219;42.864;23.360;2023-05-18T04:12:44;95414.13;;;13.60;100.00
29169;BME280;16219;42.864;23.360;2023-05-18T04:15:13;95415.97;;;13.59;100.00
29169;BME280;16219;42.864;23.360;2023-05-18T04:17:42;95411.03;;;13.58;100.00
29169;BME280;16219;42.864;23.360;2023-05-18T04:20:10;95398.59;;;13.46;100.00
29169;BME280;16219;42.864;23.360;2023-05-18T04:22:52;95426.91;;;13.58;100.00
29169;BME280;16219;42.864;23.360;2023-05-18T04:25:21;95422.75;;;13.57;100.00
29169;BME280;16219;42.864;23.360;2023-05-18T04:27:51;95421.19;;;13.56;100.00
29169;BME280;16219;42.864;23.360;2023-05-18T04:30:26;95420.56;;;13.46;100.00
29169;BME280;16219;42.864;23.360;2023-05-18T04:32:54;95424.63;;;13.56;100.00
29169;BME280;16219;42.864;23.360;2023-05-18T04:35:23;95424.94;;;13.55;100.00
29169;BME280;16219;42.864;23.360;2023-05-18T04:37:51;95427.78;;;13.62;100.00
29169;BME280;16219;42.864;23.360;2023-05-18T04:40:20;95431.75;;;13.68;100.00
29169;BME280;16219;42.864;23.360;2023-05-18T04:42:48;95426.25;;;13.61;100.00
29169;BME280;16219;42.864;23.360;2023-05-18T04:45:21;95430.34;;;13.58;100.00
29169;BME280;16219;42.864;23.360;2023-05-18T04:47:53;95433.00;;;13.58;100.00
29169;BME280;16219;42.864;23.360;2023-05-18T04:50:21;95439.41;;;13.57;100.00
29169;BME280;16219;42.864;23.360;2023-05-18T04:52:50;95443.50;;;13.55;100.00
29169;BME280;16219;42.864;23.360;2023-05-18T04:55:20;95445.13;;;13.59;100.00
29169;BME280;16219;42.864;23.360;2023-05-18T04:57:51;95444.81;;;13.61;100.00
29169;BME280;16219;42.864;23.360;2023-05-18T05:00:22;95452.31;;;13.59;100.00
29169;BME280;16219;42.864;23.360;2023-05-18T05:02:52;95437.69;;;13.37;100.00
29169;BME280;16219;42.864;23.360;2023-05-18T05:05:19;95447.75;;;13.43;100.00
29169;BME280;16219;42.864;23.360;2023-05-18T05:07:49;95451.72;;;13.37;100.00
29169;BME280;16219;42.864;23.360;2023-05-18T05:10:17;95453.41;;;13.30;100.00
29169;BME280;16219;42.864;23.360;2023-05-18T05:12:45;95448.19;;;13.21;100.00
29169;BME280;16219;42.864;23.360;2023-05-18T05:15:12;95459.38;;;13.27;100.00
29169;BME280;16219;42.864;23.360;2023-05-18T05:17:41;95462.13;;;13.18;100.00
29169;BME280;16219;42.864;23.360;2023-05-18T05:20:10;95475.03;;;13.19;100.00
29169;BME280;16219;42.864;23.360;2023-05-18T05:22:38;95476.25;;;13.22;100.00
29169;BME280;16219;42.864;23.360;2023-05-18T05:25:09;95477.34;;;13.21;100.00
29169;BME280;16219;42.864;23.360;2023-05-18T05:27:37;95480.09;;;13.12;100.00
29169;BME280;16219;42.864;23.360;2023-05-18T05:30:06;95484.44;;;13.17;100.00
29169;BME280;16219;42.864;23.360;2023-05-18T05:32:36;95485.09;;;13.26;100.00
29169;BME280;16219;42.864;23.360;2023-05-18T05:35:06;95473.38;;;13.15;100.00
29169;BME280;16219;42.864;23.360;2023-05-18T05:37:36;95490.81;;;13.28;100.00
29169;BME280;16219;42.864;23.360;2023-05-18T05:40:06;95498.53;;;13.33;100.00
29169;BME280;16219;42.864;23.360;2023-05-18T05:42:40;95498.34;;;13.26;100.00
29169;BME280;16219;42.864;23.360;2023-05-18T05:45:09;95494.34;;;13.32;100.00
29169;BME280;16219;42.864;23.360;2023-05-18T05:47:42;95499.75;;;13.36;100.00
29169;BME280;16219;42.864;23.360;2023-05-18T05:50:11;95498.22;;;13.35;100.00
29169;BME280;16219;42.864;23.360;2023-05-18T05:52:40;95505.94;;;13.40;100.00
29169;BME280;16219;42.864;23.360;2023-05-18T05:55:09;95493.94;;;13.58;100.00
29169;BME280;16219;42.864;23.360;2023-05-18T05:57:36;95496.56;;;13.70;100.00
29169;BME280;16219;42.864;23.360;2023-05-18T06:00:09;95500.59;;;13.80;100.00
29169;BME280;16219;42.864;23.360;2023-05-18T06:02:51;95502.53;;;13.95;100.00
29169;BME280;16219;42.864;23.360;2023-05-18T06:05:29;95497.00;;;14.00;100.00
29169;BME280;16219;42.864;23.360;2023-05-18T06:07:58;95502.50;;;14.08;100.00
29169;BME280;16219;42.864;23.360;2023-05-18T06:10:26;95507.13;;;14.11;100.00
29169;BME280;16219;42.864;23.360;2023-05-18T06:12:54;95503.38;;;14.12;100.00
29169;BME280;16219;42.864;23.360;2023-05-18T06:15:26;95508.06;;;14.18;100.00
29169;BME280;16219;42.864;23.360;2023-05-18T06:17:54;95511.16;;;14.20;100.00
29169;BME280;16219;42.864;23.360;2023-05-18T06:20:23;95509.03;;;14.26;100.00
29169;BME280;16219;42.864;23.360;2023-05-18T06:22:51;95510.31;;;14.48;100.00
29169;BME280;16219;42.864;23.360;2023-05-18T06:25:30;95519.63;;;14.54;100.00
29169;BME280;16219;42.864;23.360;2023-05-18T06:28:18;95516.00;;;14.78;100.00
29169;BME280;16219;42.864;23.360;2023-05-18T06:30:51;95519.28;;;14.71;100.00
29169;BME280;16219;42.864;23.360;2023-05-18T06:33:27;95529.13;;;14.71;100.00
29169;BME280;16219;42.864;23.360;2023-05-18T06:35:56;95522.44;;;14.77;100.00
29169;BME280;16219;42.864;23.360;2023-05-18T06:38:24;95531.34;;;15.00;100.00
29169;BME280;16219;42.864;23.360;2023-05-18T06:40:54;95537.66;;;15.12;100.00
29169;BME280;16219;42.864;23.360;2023-05-18T06:43:22;95540.50;;;15.03;100.00
29169;BME280;16219;42.864;23.360;2023-05-18T06:45:56;95549.50;;;14.98;100.00
29169;BME280;16219;42.864;23.360;2023-05-18T06:48:31;95524.59;;;14.87;100.00
29169;BME280;16219;42.864;23.360;2023-05-18T06:50:59;95557.38;;;15.11;100.00
29169;BME280;16219;42.864;23.360;2023-05-18T06:53:28;95563.66;;;15.18;100.00
29169;BME280;16219;42.864;23.360;2023-05-18T06:55:58;95569.16;;;15.10;100.00
29169;BME280;16219;42.864;23.360;2023-05-18T06:58:26;95569.81;;;15.22;100.00
29169;BME280;16219;42.864;23.360;2023-05-18T07:00:55;95576.91;;;15.34;100.00
29169;BME280;16219;42.864;23.360;2023-05-18T07:03:23;95574.28;;;15.54;100.00
29169;BME280;16219;42.864;23.360;2023-05-18T07:05:51;95583.41;;;15.53;100.00
29169;BME280;16219;42.864;23.360;2023-05-18T07:08:19;95582.38;;;15.41;100.00
29169;BME280;16219;42.864;23.360;2023-05-18T07:10:49;95581.88;;;15.52;100.00
29169;BME280;16219;42.864;23.360;2023-05-18T07:13:19;95594.31;;;15.47;100.00
29169;BME280;16219;42.864;23.360;2023-05-18T07:15:46;95599.72;;;15.51;100.00
29169;BME280;16219;42.864;23.360;2023-05-18T07:18:14;95597.72;;;15.64;100.00
29169;BME280;16219;42.864;23.360;2023-05-18T07:20:42;95597.75;;;15.83;100.00
29169;BME280;16219;42.864;23.360;2023-05-18T07:23:09;95601.47;;;15.79;100.00
29169;BME280;16219;42.864;23.360;2023-05-18T07:25:37;95608.41;;;15.83;100.00
29169;BME280;16219;42.864;23.360;2023-05-18T07:28:05;95621.50;;;15.92;100.00
29169;BME280;16219;42.864;23.360;2023-05-18T07:30:35;95612.75;;;15.91;100.00
29169;BME280;16219;42.864;23.360;2023-05-18T07:33:02;95618.25;;;15.83;100.00
29169;BME280;16219;42.864;23.360;2023-05-18T07:35:31;95622.25;;;15.92;100.00
29169;BME280;16219;42.864;23.360;2023-05-18T07:37:58;95613.09;;;16.09;100.00
29169;BME280;16219;42.864;23.360;2023-05-18T07:40:26;95624.53;;;16.10;100.00
29169;BME280;16219;42.864;23.360;2023-05-18T07:42:54;95615.09;;;16.12;100.00
29169;BME280;16219;42.864;23.360;2023-05-18T07:45:22;95619.69;;;16.35;100.00
29169;BME280;16219;42.864;23.360;2023-05-18T07:47:51;95626.06;;;16.49;100.00
29169;BME280;16219;42.864;23.360;2023-05-18T07:50:18;95632.53;;;16.48;100.00
29169;BME280;16219;42.864;23.360;2023-05-18T07:52:45;95622.31;;;16.31;100.00
29169;BME280;16219;42.864;23.360;2023-05-18T07:55:13;95617.31;;;16.30;100.00
29169;BME280;16219;42.864;23.360;2023-05-18T07:57:42;95630.97;;;16.47;100.00
29169;BME280;16219;42.864;23.360;2023-05-18T08:00:10;95636.38;;;16.51;100.00
29169;BME280;16219;42.864;23.360;2023-05-18T08:02:41;95641.06;;;16.38;100.00
29169;BME280;16219;42.864;23.360;2023-05-18T08:05:12;95641.97;;;16.27;100.00
29169;BME280;16219;42.864;23.360;2023-05-18T08:07:40;95646.69;;;16.33;100.00
29169;BME280;16219;42.864;23.360;2023-05-18T08:10:08;95654.81;;;16.40;100.00
29169;BME280;16219;42.864;23.360;2023-05-18T08:12:36;95665.88;;;16.23;100.00
29169;BME280;16219;42.864;23.360;2023-05-18T08:15:05;95647.56;;;16.02;100.00
29169;BME280;16219;42.864;23.360;2023-05-18T08:17:34;95656.81;;;16.08;100.00
29169;BME280;16219;42.864;23.360;2023-05-18T08:20:01;95664.06;;;16.27;100.00
29169;BME280;16219;42.864;23.360;2023-05-18T08:22:31;95674.28;;;16.44;100.00
29169;BME280;16219;42.864;23.360;2023-05-18T08:24:58;95660.63;;;16.46;100.00
29169;BME280;16219;42.864;23.360;2023-05-18T08:27:27;95667.84;;;16.45;100.00
29169;BME280;16219;42.864;23.360;2023-05-18T08:29:54;95682.53;;;16.39;100.00
29169;BME280;16219;42.864;23.360;2023-05-18T08:32:21;95679.47;;;16.37;100.00
29169;BME280;16219;42.864;23.360;2023-05-18T08:34:49;95690.25;;;16.25;100.00
29169;BME280;16219;42.864;23.360;2023-05-18T08:37:16;95692.81;;;16.21;100.00
29169;BME280;16219;42.864;23.360;2023-05-18T08:39:44;95701.47;;;16.34;100.00
29169;BME280;16219;42.864;23.360;2023-05-18T08:42:17;95695.94;;;16.23;100.00
29169;BME280;16219;42.864;23.360;2023-05-18T08:44:49;95709.84;;;16.17;100.00
29169;BME280;16219;42.864;23.360;2023-05-18T08:47:16;95704.50;;;15.97;100.00
29169;BME280;16219;42.864;23.360;2023-05-18T08:49:50;95704.88;;;15.80;100.00
29169;BME280;16219;42.864;23.360;2023-05-18T08:52:19;95698.25;;;15.74;100.00
29169;BME280;16219;42.864;23.360;2023-05-18T08:54:52;95706.22;;;15.74;100.00
29169;BME280;16219;42.864;23.360;2023-05-18T08:57:21;95724.00;;;15.70;100.00
29169;BME280;16219;42.864;23.360;2023-05-18T08:59:51;95711.19;;;15.60;100.00
29169;BME280;16219;42.864;23.360;2023-05-18T09:02:20;95719.84;;;15.57;100.00
29169;BME280;16219;42.864;23.360;2023-05-18T09:04:48;95718.47;;;15.63;100.00
29169;BME280;16219;42.864;23.360;2023-05-18T09:07:17;95725.19;;;15.57;100.00
29169;BME280;16219;42.864;23.360;2023-05-18T09:09:45;95733.31;;;15.32;100.00
29169;BME280;16219;42.864;23.360;2023-05-18T09:12:15;95724.22;;;15.33;100.00
29169;BME280;16219;42.864;23.360;2023-05-18T09:14:45;95726.63;;;15.38;100.00
29169;BME280;16219;42.864;23.360;2023-05-18T09:17:14;95720.28;;;15.27;100.00
29169;BME280;16219;42.864;23.360;2023-05-18T09:19:41;95729.94;;;15.19;100.00
29169;BME280;16219;42.864;23.360;2023-05-18T09:22:08;95729.44;;;15.14;100.00
29169;BME280;16219;42.864;23.360;2023-05-18T09:24:36;95737.16;;;15.19;100.00
29169;BME280;16219;42.864;23.360;2023-05-18T09:27:04;95733.63;;;15.15;100.00
29169;BME280;16219;42.864;23.360;2023-05-18T09:29:33;95728.66;;;15.29;100.00
29169;BME280;16219;42.864;23.360;2023-05-18T09:32:01;95731.88;;;15.50;100.00
29169;BME280;16219;42.864;23.360;2023-05-18T09:34:38;95721.13;;;15.63;100.00
29169;BME280;16219;42.864;23.360;2023-05-18T09:37:08;95732.31;;;15.68;100.00
29169;BME280;16219;42.864;23.360;2023-05-18T09:39:35;95729.06;;;15.75;100.00
29169;BME280;16219;42.864;23.360;2023-05-18T09:42:02;95732.84;;;15.74;100.00
29169;BME280;16219;42.864;23.360;2023-05-18T09:44:30;95723.28;;;15.57;100.00
29169;BME280;16219;42.864;23.360;2023-05-18T09:46:59;95733.34;;;15.64;100.00
29169;BME280;16219;42.864;23.360;2023-05-18T09:49:28;95735.97;;;15.48;100.00
29169;BME280;16219;42.864;23.360;2023-05-18T09:51:56;95733.41;;;15.52;100.00
29169;BME280;16219;42.864;23.360;2023-05-18T09:54:24;95740.97;;;15.65;100.00
29169;BME280;16219;42.864;23.360;2023-05-18T09:56:51;95742.63;;;15.70;100.00
29169;BME280;16219;42.864;23.360;2023-05-18T09:59:19;95742.63;;;15.70;100.00
29169;BME280;16219;42.864;23.360;2023-05-18T10:01:57;95730.44;;;15.69;100.00
29169;BME280;16219;42.864;23.360;2023-05-18T10:04:36;95735.66;;;15.81;100.00
29169;BME280;16219;42.864;23.360;2023-05-18T10:07:08;95753.94;;;15.98;100.00
29169;BME280;16219;42.864;23.360;2023-05-18T10:09:36;95752.38;;;15.97;100.00
29169;BME280;16219;42.864;23.360;2023-05-18T10:12:09;95755.72;;;15.94;100.00
29169;BME280;16219;42.864;23.360;2023-05-18T10:14:37;95754.59;;;15.95;100.00
29169;BME280;16219;42.864;23.360;2023-05-18T10:17:04;95758.56;;;16.02;100.00
29169;BME280;16219;42.864;23.360;2023-05-18T10:19:35;95762.41;;;16.04;100.00
29169;BME280;16219;42.864;23.360;2023-05-18T10:22:04;95763.72;;;16.10;100.00
29169;BME280;16219;42.864;23.360;2023-05-18T10:24:34;95764.97;;;16.00;100.00
29169;BME280;16219;42.864;23.360;2023-05-18T10:27:07;95760.97;;;15.91;100.00
29169;BME280;16219;42.864;23.360;2023-05-18T10:29:43;95761.66;;;15.88;100.00
29169;BME280;16219;42.864;23.360;2023-05-18T10:32:17;95769.81;;;15.79;100.00
29169;BME280;16219;42.864;23.360;2023-05-18T10:34:48;95763.47;;;15.68;100.00
29169;BME280;16219;42.864;23.360;2023-05-18T10:37:18;95774.31;;;15.63;100.00
29169;BME280;16219;42.864;23.360;2023-05-18T10:39:50;95771.88;;;15.70;100.00
29169;BME280;16219;42.864;23.360;2023-05-18T10:42:18;95772.38;;;15.75;100.00
29169;BME280;16219;42.864;23.360;2023-05-18T10:44:47;95770.56;;;15.64;100.00
29169;BME280;16219;42.864;23.360;2023-05-18T10:47:16;95783.19;;;15.67;100.00
29169;BME280;16219;42.864;23.360;2023-05-18T10:49:48;95780.72;;;15.74;100.00
29169;BME280;16219;42.864;23.360;2023-05-18T10:52:16;95779.59;;;15.75;100.00
29169;BME280;16219;42.864;23.360;2023-05-18T10:54:44;95791.00;;;15.91;100.00
29169;BME280;16219;42.864;23.360;2023-05-18T10:57:15;95795.38;;;15.99;100.00
29169;BME280;16219;42.864;23.360;2023-05-18T10:59:44;95796.81;;;15.97;100.00
29169;BME280;16219;42.864;23.360;2023-05-18T11:02:13;95804.13;;;16.00;100.00
29169;BME280;16219;42.864;23.360;2023-05-18T11:04:42;95797.84;;;15.92;100.00
29169;BME280;16219;42.864;23.360;2023-05-18T11:07:11;95803.81;;;16.02;100.00
29169;BME280;16219;42.864;23.360;2023-05-18T11:09:40;95806.19;;;16.07;100.00
29169;BME280;16219;42.864;23.360;2023-05-18T11:12:12;95800.69;;;16.15;100.00
29169;BME280;16219;42.864;23.360;2023-05-18T11:14:47;95796.81;;;16.13;100.00
29169;BME280;16219;42.864;23.360;2023-05-18T11:17:18;95803.00;;;16.17;100.00
29169;BME280;16219;42.864;23.360;2023-05-18T11:20:11;95799.81;;;16.27;100.00
29169;BME280;16219;42.864;23.360;2023-05-18T11:22:47;95802.91;;;16.29;100.00
29169;BME280;16219;42.864;23.360;2023-05-18T11:25:43;95808.91;;;16.26;100.00
29169;BME280;16219;42.864;23.360;2023-05-18T11:28:11;95813.28;;;16.34;100.00
29169;BME280;16219;42.864;23.360;2023-05-18T11:30:49;95811.47;;;16.38;100.00
29169;BME280;16219;42.864;23.360;2023-05-18T11:33:25;95808.41;;;16.36;100.00
29169;BME280;16219;42.864;23.360;2023-05-18T11:36:08;95817.47;;;16.35;100.00
29169;BME280;16219;42.864;23.360;2023-05-18T11:38:51;95817.84;;;16.34;100.00
29169;BME280;16219;42.864;23.360;2023-05-18T11:41:26;95826.25;;;16.36;100.00
29169;BME280;16219;42.864;23.360;2023-05-18T11:44:14;95817.94;;;16.21;100.00
29169;BME280;16219;42.864;23.360;2023-05-18T11:46:52;95821.88;;;16.28;100.00
29169;BME280;16219;42.864;23.360;2023-05-18T11:49:22;95821.38;;;16.22;99.44
29169;BME280;16219;42.864;23.360;2023-05-18T11:52:00;95826.69;;;16.22;100.00
29169;BME280;16219;42.864;23.360;2023-05-18T11:54:36;95808.84;;;16.07;100.00
29169;BME280;16219;42.864;23.360;2023-05-18T11:57:05;95827.44;;;16.22;100.00
29169;BME280;16219;42.864;23.360;2023-05-18T11:59:36;95828.84;;;16.32;100.00
29169;BME280;16219;42.864;23.360;2023-05-18T12:02:04;95827.34;;;16.35;100.00
29169;BME280;16219;42.864;23.360;2023-05-18T12:04:32;95827.53;;;16.42;100.00
29169;BME280;16219;42.864;23.360;2023-05-18T12:07:04;95829.41;;;16.41;100.00
29169;BME280;16219;42.864;23.360;2023-05-18T12:09:34;95836.72;;;16.44;100.00
29169;BME280;16219;42.864;23.360;2023-05-18T12:12:02;95823.66;;;16.39;100.00
29169;BME280;16219;42.864;23.360;2023-05-18T12:14:31;95831.66;;;16.39;100.00
29169;BME280;16219;42.864;23.360;2023-05-18T12:17:01;95847.75;;;16.27;100.00
29169;BME280;16219;42.864;23.360;2023-05-18T12:19:38;95847.84;;;16.15;100.00
29169;BME280;16219;42.864;23.360;2023-05-18T12:22:16;95859.06;;;16.08;100.00
29169;BME280;16219;42.864;23.360;2023-05-18T12:24:45;95862.00;;;16.03;100.00
29169;BME280;16219;42.864;23.360;2023-05-18T12:27:13;95866.63;;;15.90;100.00
29169;BME280;16219;42.864;23.360;2023-05-18T12:29:41;95861.31;;;15.62;100.00
29169;BME280;16219;42.864;23.360;2023-05-18T12:32:11;95876.28;;;15.39;100.00
29169;BME280;16219;42.864;23.360;2023-05-18T12:34:39;95873.78;;;15.18;100.00
29169;BME280;16219;42.864;23.360;2023-05-18T12:37:08;95872.03;;;15.10;100.00
29169;BME280;16219;42.864;23.360;2023-05-18T12:39:35;95880.69;;;15.07;100.00
29169;BME280;16219;42.864;23.360;2023-05-18T12:42:12;95870.38;;;15.17;100.00
29169;BME280;16219;42.864;23.360;2023-05-18T12:44:41;95879.56;;;15.08;100.00
29169;BME280;16219;42.864;23.360;2023-05-18T12:47:10;95878.75;;;14.91;100.00
29169;BME280;16219;42.864;23.360;2023-05-18T12:49:38;95878.03;;;14.94;100.00
29169;BME280;16219;42.864;23.360;2023-05-18T12:52:10;95881.31;;;14.75;100.00
29169;BME280;16219;42.864;23.360;2023-05-18T12:54:53;95880.06;;;14.85;100.00